Time;durP1;ratioP1;P1;durP2;ratioP2;P2;SDS_P1;SDS_P2;PMS_P1;PMS_P2;Temp;Humidity;BMP_temperature;BMP_pressure;BME280_temperature;BME280_humidity;BME280_pressure;Samples;Min_cycle;Max_cycle;Signal;HPM_P1;HPM_P2
2021/11/16 00:00:53;;;;;;;47.93;29.20;;;6.80;80.00;;;5.29;86.34;98470.25;4950521;28;20501;-71
2021/11/16 00:03:22;;;;;;;52.73;31.10;;;6.70;80.30;;;5.29;86.34;98464.88;4965710;28;20553;-71
2021/11/16 00:05:49;;;;;;;45.43;29.17;;;6.70;80.30;;;5.29;86.35;98470.25;4971008;28;20457;-71
2021/11/16 00:08:16;;;;;;;52.73;31.30;;;6.70;80.40;;;5.21;86.33;98470.25;4963847;28;20883;-70
2021/11/16 00:10:43;;;;;;;50.80;29.13;;;6.60;80.40;;;5.17;86.92;98469.78;4966996;28;20856;-70
2021/11/16 00:13:11;;;;;;;45.53;29.87;;;6.60;80.60;;;5.27;86.54;98469.59;4969080;28;20470;-70
2021/11/16 00:15:39;;;;;;;46.87;29.00;;;6.60;80.80;;;5.40;86.46;98474.41;4952609;28;20461;-70
2021/11/16 00:18:07;;;;;;;52.80;31.40;;;6.70;80.70;;;5.47;85.96;98470.06;4969787;28;20466;-69
2021/11/16 00:20:40;;;;;;;45.90;29.10;;;6.80;80.40;;;5.42;85.29;98475.06;4968761;28;20549;-70
2021/11/16 00:23:14;;;;;;;52.57;29.37;;;6.80;80.20;;;5.42;85.46;98471.56;4968186;28;20485;-69
2021/11/16 00:25:42;;;;;;;53.50;29.43;;;6.80;80.20;;;5.39;85.82;98470.91;4949213;28;20470;-69
2021/11/16 00:28:09;;;;;;;44.90;28.30;;;6.80;80.10;;;5.32;86.54;98471.75;4965664;28;20927;-70
2021/11/16 00:30:38;;;;;;;48.87;29.70;;;6.70;80.50;;;5.27;86.52;98476.78;4969766;28;20473;-71
2021/11/16 00:33:05;;;;;;;49.70;29.67;;;6.70;80.60;;;5.39;86.53;98475.41;4948442;28;20950;-70
2021/11/16 00:35:37;;;;;;;44.37;28.40;;;6.70;80.60;;;5.51;85.46;98471.38;4965014;28;20549;-70
2021/11/16 00:38:07;;;;;;;50.10;29.20;;;6.80;80.20;;;5.54;85.06;98462.16;4972606;28;20469;-70
2021/11/16 00:40:35;;;;;;;51.83;28.80;;;6.90;80.10;;;5.47;85.74;98469.19;4971489;28;20494;-70
2021/11/16 00:43:04;;;;;;;48.80;29.90;;;6.80;80.10;;;5.51;85.91;98473.19;4972478;28;20507;-70
2021/11/16 00:45:31;;;;;;;54.20;32.60;;;6.80;80.00;;;5.42;85.06;98476.94;4971243;28;20454;-70
2021/11/16 00:47:59;;;;;;;51.83;30.37;;;6.80;79.80;;;5.32;85.55;98477.13;4954017;28;20512;-69
2021/11/16 00:50:26;;;;;;;55.03;32.80;;;6.70;79.90;;;5.31;85.74;98473.59;4957975;28;20583;-70
2021/11/16 00:52:53;;;;;;;52.60;30.20;;;6.70;80.00;;;5.38;85.87;98477.28;4963745;28;20561;-69
2021/11/16 00:55:21;;;;;;;49.20;30.17;;;6.80;80.10;;;5.39;85.62;98480.78;4968464;28;20469;-70
2021/11/16 00:57:49;;;;;;;48.40;29.83;;;6.70;79.70;;;5.29;85.77;98480.13;4970452;28;20460;-70
2021/11/16 01:00:19;;;;;;;59.20;29.73;;;6.70;80.30;;;5.32;85.51;98483.31;4955684;28;20482;-70
2021/11/16 01:02:46;;;;;;;53.27;32.00;;;6.70;80.00;;;5.28;85.30;98468.56;4970984;28;20493;-70
2021/11/16 01:05:14;;;;;;;49.80;30.00;;;6.70;80.00;;;5.24;86.33;98475.28;4969087;28;20537;-69
2021/11/16 01:07:42;;;;;;;49.53;30.00;;;6.60;80.00;;;5.30;85.91;98469.25;4969014;28;20461;-69
2021/11/16 01:10:11;;;;;;;54.10;31.47;;;6.70;80.40;;;5.36;85.55;98476.59;4971328;28;21008;-70
2021/11/16 01:12:41;;;;;;;52.80;30.60;;;6.70;80.30;;;5.35;85.29;98472.22;4967921;28;20557;-69
2021/11/16 01:15:11;;;;;;;48.60;29.20;;;6.70;80.00;;;5.44;85.45;98469.53;4964951;28;20474;-70
2021/11/16 01:17:38;;;;;;;52.40;31.67;;;6.70;80.20;;;5.39;85.38;98478.94;4968456;28;20545;-69
2021/11/16 01:20:08;;;;;;;49.43;30.70;;;6.80;80.10;;;5.45;85.48;98479.25;4973425;28;20473;-70
2021/11/16 01:22:35;;;;;;;52.10;29.63;;;6.80;80.10;;;5.47;85.20;98479.91;4965705;28;20540;-70
2021/11/16 01:25:03;;;;;;;49.70;29.77;;;6.80;79.90;;;5.46;84.94;98491.66;4971759;28;20983;-71
2021/11/16 01:27:34;;;;;;;55.67;31.57;;;6.80;79.80;;;5.29;86.01;98491.69;4968686;28;21011;-69
2021/11/16 01:30:06;;;;;;;58.30;31.10;;;6.70;79.80;;;5.44;85.34;98491.00;4950793;28;20469;-70
2021/11/16 01:32:37;;;;;;;58.33;32.87;;;6.80;79.80;;;5.22;85.24;98483.47;4970663;28;21019;-70
2021/11/16 01:35:06;;;;;;;52.40;31.27;;;6.70;79.80;;;5.32;84.52;98490.50;4952385;28;20509;-71
2021/11/16 01:37:34;;;;;;;50.23;30.43;;;6.70;79.50;;;5.34;85.55;98491.19;4974850;28;20551;-69
2021/11/16 01:40:05;;;;;;;49.33;29.57;;;6.70;79.60;;;5.36;85.29;98484.63;4948582;28;20525;-70
2021/11/16 01:42:32;;;;;;;52.03;31.50;;;6.70;79.70;;;5.36;84.99;98476.59;4970495;28;20496;-70
2021/11/16 01:45:00;;;;;;;53.27;29.67;;;6.70;79.90;;;5.35;85.29;98472.22;4970645;28;20465;-70
2021/11/16 01:47:28;;;;;;;52.90;31.23;;;6.70;80.00;;;5.40;85.69;98474.41;4968315;28;20472;-70
2021/11/16 01:49:56;;;;;;;53.67;29.00;;;6.70;80.20;;;5.45;85.02;98473.91;4968420;28;20460;-70
2021/11/16 01:52:23;;;;;;;46.60;30.27;;;6.80;79.70;;;5.35;84.84;98471.41;4970140;28;20481;-69
2021/11/16 01:54:50;;;;;;;53.47;30.17;;;6.70;79.60;;;5.45;84.46;98479.25;4971470;28;20640;-69
2021/11/16 01:57:17;;;;;;;55.10;31.97;;;6.80;79.60;;;5.34;85.24;98478.59;4964854;28;20460;-70
2021/11/16 01:59:45;;;;;;;55.17;30.70;;;6.70;79.80;;;5.46;85.89;98475.56;4969839;28;20482;-69
2021/11/16 02:02:12;;;;;;;48.73;30.00;;;6.70;80.00;;;5.36;85.79;98473.91;4968870;28;20473;-69
2021/11/16 02:04:41;;;;;;;49.40;29.90;;;6.70;80.10;;;5.38;86.27;98477.28;4962153;28;20988;-70
2021/11/16 02:07:08;;;;;;;47.07;30.50;;;6.70;80.40;;;5.29;85.97;98459.53;4967634;28;20461;-70
2021/11/16 02:09:36;;;;;;;47.70;30.27;;;6.70;80.70;;;5.48;85.05;98465.50;4970261;28;20485;-69
2021/11/16 02:12:04;;;;;;;50.37;29.50;;;6.80;79.60;;;5.49;85.23;98467.19;4968749;28;21211;-70
2021/11/16 02:14:31;;;;;;;50.33;29.97;;;6.70;79.80;;;5.38;85.42;98465.72;4970893;28;20548;-70
2021/11/16 02:16:58;;;;;;;52.93;29.80;;;6.70;79.90;;;5.36;84.71;98473.91;4971960;28;20489;-71
2021/11/16 02:19:26;;;;;;;53.60;30.63;;;6.70;79.70;;;5.32;85.73;98471.75;4969682;28;21192;-71
2021/11/16 02:21:54;;;;;;;50.17;30.27;;;6.70;79.90;;;5.18;85.88;98467.91;4970737;28;20460;-70
2021/11/16 02:24:22;;;;;;;50.63;29.47;;;6.60;80.20;;;5.42;85.59;98468.88;4966136;28;20472;-70
2021/11/16 02:26:49;;;;;;;48.20;27.90;;;6.70;80.30;;;5.35;85.01;98461.50;4968199;28;20481;-70
2021/11/16 02:29:16;;;;;;;50.03;29.60;;;6.70;79.60;;;5.44;84.91;98459.66;4953564;28;20468;-71
2021/11/16 02:31:45;;;;;;;57.53;31.50;;;6.80;79.60;;;5.37;84.95;98456.81;4971590;28;20591;-69
2021/11/16 02:34:13;;;;;;;54.70;29.87;;;6.70;79.60;;;5.34;84.95;98459.03;4954145;28;20458;-69
2021/11/16 02:36:42;;;;;;;49.40;29.30;;;6.70;79.50;;;5.45;84.06;98463.19;4968663;28;20472;-71
2021/11/16 02:39:12;;;;;;;53.70;31.80;;;6.80;79.40;;;5.39;84.79;98451.28;4969724;28;20457;-70
2021/11/16 02:41:41;;;;;;;44.63;28.43;;;6.70;79.30;;;5.39;84.17;98452.16;4969318;28;20476;-70
2021/11/16 02:44:09;;;;;;;46.60;30.37;;;6.80;79.10;;;5.36;84.80;98444.44;4969260;28;20501;-71
2021/11/16 02:46:37;;;;;;;49.30;29.63;;;6.70;79.40;;;5.29;84.47;98443.44;4967701;28;20561;-71
2021/11/16 02:49:05;;;;;;;52.83;30.30;;;6.70;79.10;;;5.16;85.42;98441.31;4950485;28;20461;-70
2021/11/16 02:51:36;;;;;;;49.23;27.63;;;6.70;79.30;;;5.25;84.47;98451.00;4968453;28;20481;-70
2021/11/16 02:54:15;;;;;;;55.13;28.53;;;6.60;79.30;;;5.10;85.48;98440.16;4969977;28;20893;-70
2021/11/16 02:56:43;;;;;;;53.20;30.57;;;6.60;79.80;;;5.22;85.38;98447.81;4940670;28;20465;-70
2021/11/16 02:59:11;;;;;;;49.83;32.20;;;6.60;79.70;;;5.26;84.62;98449.16;4967236;28;20549;-71
2021/11/16 03:01:39;;;;;;;49.20;29.43;;;6.60;79.30;;;5.41;84.64;98441.25;4971299;28;20504;-71
2021/11/16 03:04:07;;;;;;;48.50;27.53;;;6.70;79.20;;;5.44;83.97;98448.94;4970936;28;20556;-71
2021/11/16 03:06:34;;;;;;;50.90;28.97;;;6.70;79.10;;;5.46;84.13;98440.72;4965456;28;20466;-71
2021/11/16 03:09:02;;;;;;;49.90;29.63;;;6.80;79.10;;;5.29;84.70;98448.81;4967125;28;20484;-71
2021/11/16 03:11:30;;;;;;;52.10;29.77;;;6.70;79.10;;;5.17;85.57;98442.97;4968573;28;20477;-71
2021/11/16 03:13:57;;;;;;;50.20;29.97;;;6.60;79.60;;;5.32;85.20;98445.78;4969232;28;20464;-72
2021/11/16 03:16:24;;;;;;;50.60;31.17;;;6.60;79.70;;;5.25;84.49;98447.50;4968007;28;20457;-72
2021/11/16 03:18:54;;;;;;;53.43;29.20;;;6.60;79.20;;;5.25;84.86;98455.53;4970392;28;20461;-69
2021/11/16 03:21:24;;;;;;;51.80;28.60;;;6.60;79.00;;;5.34;83.87;98462.53;4967165;28;20556;-71
2021/11/16 03:23:53;;;;;;;54.20;30.57;;;6.70;79.30;;;5.30;83.91;98457.66;4950623;28;20446;-72
2021/11/16 03:26:23;;;;;;;52.57;30.30;;;6.70;78.80;;;5.22;84.75;98453.16;4951247;28;20489;-70
2021/11/16 03:28:53;;;;;;;51.93;30.50;;;6.60;78.90;;;5.28;84.15;98457.84;4951961;28;20450;-74
2021/11/16 03:31:29;;;;;;;48.40;28.83;;;6.60;79.00;;;5.29;84.53;98462.22;4957407;28;20653;-74
2021/11/16 03:33:57;;;;;;;44.93;26.70;;;6.60;79.00;;;5.09;84.58;98430.44;4972588;28;20462;-72
2021/11/16 03:36:25;;;;;;;51.80;29.07;;;6.60;79.40;;;5.39;84.16;98454.81;4950002;28;20493;-73
2021/11/16 03:38:54;;;;;;;51.30;29.60;;;6.70;78.90;;;5.30;84.31;98450.47;4970347;28;20520;-74
2021/11/16 03:41:22;;;;;;;47.70;29.73;;;6.70;79.10;;;5.26;85.21;98449.16;4972810;28;20539;-73
2021/11/16 03:43:51;;;;;;;45.60;27.37;;;6.60;79.00;;;5.16;83.92;98445.81;4958663;28;20455;-74
2021/11/16 03:46:20;;;;;;;45.37;28.70;;;6.60;78.60;;;5.34;83.78;98451.81;4956030;28;20466;-75
2021/11/16 03:48:47;;;;;;;51.20;29.10;;;6.60;78.70;;;5.29;84.11;98459.53;4948822;28;20458;-74
2021/11/16 03:51:14;;;;;;;47.50;29.03;;;6.70;78.70;;;5.28;83.82;98457.84;4969378;28;20509;-73
2021/11/16 03:53:42;;;;;;;53.87;30.50;;;6.60;78.60;;;5.25;83.72;98466.25;4973426;28;20972;-73
2021/11/16 03:56:09;;;;;;;49.10;27.60;;;6.60;78.50;;;5.32;84.20;98445.78;4968446;28;20553;-73
2021/11/16 03:58:40;;;;;;;47.13;28.87;;;6.70;78.50;;;5.21;83.81;98438.09;4977846;28;20471;-73
2021/11/16 04:01:09;;;;;;;52.13;31.53;;;6.60;78.70;;;5.24;84.43;98449.31;4954905;28;20501;-73
2021/11/16 04:03:41;;;;;;;50.50;29.90;;;6.60;79.10;;;5.27;83.81;98449.97;4976975;28;20980;-73
2021/11/16 04:06:09;;;;;;;47.10;29.27;;;6.60;78.50;;;5.23;84.69;98447.66;4973815;28;20480;-73
2021/11/16 04:08:36;;;;;;;46.73;29.30;;;6.60;78.80;;;5.29;83.49;98448.81;4969976;28;20462;-75
2021/11/16 04:11:04;;;;;;;49.23;29.23;;;6.70;78.50;;;5.15;83.97;98438.78;4976110;28;20808;-74
2021/11/16 04:13:32;;;;;;;47.00;28.17;;;6.60;78.40;;;5.21;84.52;98449.66;4972080;28;20541;-74
2021/11/16 04:15:59;;;;;;;45.67;29.50;;;6.50;78.70;;;5.08;85.08;98442.16;4954613;28;21001;-73
2021/11/16 04:18:26;;;;;;;52.40;31.23;;;6.50;78.80;;;5.04;85.10;98429.28;4973115;28;20528;-74
2021/11/16 04:20:57;;;;;;;54.40;30.83;;;6.50;78.90;;;5.09;84.12;98441.16;4970970;28;20478;-73
2021/11/16 04:23:25;;;;;;;56.10;31.60;;;6.50;78.60;;;5.21;83.92;98440.78;4972699;28;20477;-74
2021/11/16 04:25:54;;;;;;;53.80;31.07;;;6.50;78.80;;;5.21;84.70;98440.78;4974452;28;20473;-73
2021/11/16 04:28:22;;;;;;;49.00;28.90;;;6.60;78.80;;;5.02;84.42;98432.09;4956888;28;20462;-72
2021/11/16 04:30:51;;;;;;;48.27;29.77;;;6.50;78.50;;;5.20;84.18;98436.44;4955260;28;20867;-73
2021/11/16 04:33:20;;;;;;;49.53;30.10;;;6.50;78.90;;;5.23;83.97;98436.94;4978055;28;20466;-73
2021/11/16 04:35:48;;;;;;;49.37;30.60;;;6.50;78.70;;;5.17;84.24;98434.09;4980720;28;20454;-73
2021/11/16 04:38:18;;;;;;;49.20;30.30;;;6.60;78.40;;;5.05;84.64;98426.41;4973371;28;20474;-73
2021/11/16 04:40:51;;;;;;;52.07;28.60;;;6.50;78.60;;;5.17;84.16;98428.75;4979569;28;20450;-75
2021/11/16 04:43:21;;;;;;;53.70;32.53;;;6.50;78.70;;;5.06;83.92;98424.56;4958036;28;20452;-74
2021/11/16 04:45:51;;;;;;;48.33;30.13;;;6.50;78.50;;;5.08;84.62;98434.13;4979383;28;20457;-73
2021/11/16 04:48:44;;;;;;;55.87;31.23;;;6.50;78.30;;;5.04;83.83;98424.75;4961399;28;20450;-74
2021/11/16 04:54:28;;;;;;;50.83;30.30;;;6.40;78.70;;;5.08;83.98;98409.16;4978710;28;20568;-73
2021/11/16 04:59:47;;;;;;;54.63;31.93;;;6.50;78.10;;;5.08;84.58;98427.91;4953834;28;20466;-75
2021/11/16 05:04:59;;;;;;;52.90;30.30;;;6.40;78.00;;;4.98;84.04;98417.41;4961777;28;20456;-73
2021/11/16 05:07:31;;;;;;;48.03;29.60;;;6.40;78.00;;;4.91;84.30;98419.06;4962179;28;20471;-73
2021/11/16 05:10:02;;;;;;;47.20;28.60;;;6.40;78.10;;;4.93;84.40;98419.75;4979491;28;20452;-73
2021/11/16 05:12:31;;;;;;;54.37;31.60;;;6.40;78.10;;;4.92;83.55;98418.06;4967769;28;20474;-73
2021/11/16 05:15:01;;;;;;;51.53;28.90;;;6.40;78.10;;;4.86;84.57;98414.25;4964371;28;20935;-75
2021/11/16 05:17:28;;;;;;;52.27;29.87;;;6.30;78.00;;;4.85;83.89;98419.75;4971265;28;20465;-73
2021/11/16 05:19:56;;;;;;;56.67;31.20;;;6.20;78.10;;;4.79;84.17;98424.78;4978045;28;20454;-73
2021/11/16 05:22:24;;;;;;;53.43;32.60;;;6.20;78.20;;;4.69;84.12;98405.38;4987580;28;20496;-72
2021/11/16 05:24:51;;;;;;;52.23;29.97;;;6.20;78.40;;;4.84;84.22;98415.41;4989068;28;20450;-72
2021/11/16 05:27:20;;;;;;;48.17;30.30;;;6.20;78.30;;;4.71;85.18;98406.03;4988279;28;20478;-74
2021/11/16 05:29:47;;;;;;;47.37;28.30;;;6.20;78.30;;;4.81;84.32;98414.75;4983652;28;20461;-72
2021/11/16 05:32:14;;;;;;;50.03;30.20;;;6.20;78.50;;;4.79;84.28;98414.06;4966358;28;20537;-74
2021/11/16 05:34:41;;;;;;;47.60;29.90;;;6.20;78.30;;;4.81;84.86;98416.56;4979348;28;20482;-73
2021/11/16 05:37:09;;;;;;;52.80;28.73;;;6.20;78.30;;;4.62;84.41;98380.25;4973354;28;20548;-71
2021/11/16 05:39:36;;;;;;;42.07;27.30;;;6.20;78.00;;;4.49;85.16;98378.09;4973109;28;20510;-71
2021/11/16 05:42:04;;;;;;;48.03;29.60;;;6.10;78.50;;;4.74;84.48;98423.59;4961752;28;20493;-73
2021/11/16 05:44:33;;;;;;;59.90;31.40;;;6.10;78.30;;;4.79;83.88;98411.41;4955953;28;20465;-72
2021/11/16 05:47:01;;;;;;;55.63;30.57;;;6.20;78.10;;;4.84;84.37;98432.28;4946677;28;20536;-72
2021/11/16 05:49:31;;;;;;;52.90;30.20;;;6.20;78.00;;;4.84;83.50;98440.31;4975438;28;20446;-73
2021/11/16 05:52:01;;;;;;;48.40;29.57;;;6.20;77.90;;;4.71;83.82;98435.47;4971157;28;21081;-73
2021/11/16 05:54:31;;;;;;;61.80;31.80;;;6.20;77.70;;;4.66;84.38;98435.97;4959704;28;20466;-74
2021/11/16 05:57:02;;;;;;;50.80;29.37;;;6.10;78.00;;;4.72;83.69;98418.41;4960774;28;21043;-72
2021/11/16 05:59:33;;;;;;;56.70;30.40;;;6.20;77.90;;;4.70;84.14;98441.84;4977312;28;20529;-72
2021/11/16 06:02:04;;;;;;;51.40;30.73;;;6.10;78.00;;;4.56;84.24;98427.28;4974858;28;20579;-73
2021/11/16 06:04:33;;;;;;;59.87;31.27;;;6.10;78.10;;;4.72;83.94;98439.81;4976412;28;20457;-73
2021/11/16 06:07:01;;;;;;;52.47;29.37;;;6.10;78.10;;;4.76;83.78;98435.81;4957288;28;20461;-72
2021/11/16 06:09:30;;;;;;;48.47;29.23;;;6.10;78.10;;;4.77;83.88;98437.47;4965194;28;20481;-74
2021/11/16 06:11:58;;;;;;;56.30;31.20;;;6.10;77.70;;;4.73;83.81;98438.00;4979126;28;20476;-74
2021/11/16 06:14:26;;;;;;;48.77;30.20;;;6.10;77.60;;;4.73;83.83;98441.50;4975980;28;20504;-73
2021/11/16 06:16:53;;;;;;;52.93;31.00;;;6.10;77.70;;;4.62;83.73;98433.78;4976779;28;20472;-73
2021/11/16 06:19:24;;;;;;;53.93;30.00;;;6.10;77.60;;;4.56;84.46;98434.47;4975533;28;20461;-74
2021/11/16 06:21:52;;;;;;;50.03;31.30;;;6.00;78.00;;;4.60;85.33;98438.47;4980128;28;20484;-75
2021/11/16 06:24:19;;;;;;;54.53;31.60;;;6.00;79.10;;;4.59;83.85;98434.97;4975083;28;20944;-74
2021/11/16 06:26:47;;;;;;;57.20;31.57;;;6.10;77.80;;;4.50;83.70;98422.59;4971384;28;20528;-73
2021/11/16 06:29:14;;;;;;;59.73;33.60;;;6.00;77.80;;;4.57;84.10;98430.78;4981569;28;20458;-74
2021/11/16 06:31:41;;;;;;;54.20;32.67;;;6.00;78.00;;;4.54;84.99;98427.44;4979287;28;20843;-74
2021/11/16 06:34:09;;;;;;;55.77;31.37;;;6.00;78.50;;;4.59;83.79;98439.47;4981975;28;20488;-75
2021/11/16 06:36:41;;;;;;;48.73;30.47;;;6.00;78.00;;;4.59;83.85;98428.78;4959723;28;20509;-75
2021/11/16 06:39:11;;;;;;;57.77;31.77;;;6.00;78.20;;;4.54;85.37;98432.81;4980869;28;20458;-74
2021/11/16 06:41:39;;;;;;;52.60;29.43;;;6.00;78.60;;;4.62;84.45;98439.16;4987391;28;20457;-73
2021/11/16 06:44:08;;;;;;;56.93;33.00;;;6.00;78.20;;;4.59;84.23;98455.53;4973700;28;20454;-75
2021/11/16 06:46:35;;;;;;;54.67;30.10;;;6.00;78.00;;;4.78;84.08;98449.88;4985043;28;20450;-74
2021/11/16 06:49:06;;;;;;;53.13;30.07;;;6.10;78.20;;;4.70;84.02;98452.53;4979125;28;20465;-74
2021/11/16 06:51:37;;;;;;;53.10;30.87;;;6.10;77.70;;;4.62;83.64;98442.66;4981439;28;20441;-74
2021/11/16 06:54:07;;;;;;;56.17;31.00;;;6.10;77.30;;;4.72;84.13;98444.38;4960400;28;20939;-73
2021/11/16 06:56:35;;;;;;;53.60;31.30;;;6.10;77.80;;;4.61;83.95;98450.84;4959535;28;20489;-77
2021/11/16 06:59:02;;;;;;;53.03;30.87;;;6.10;77.40;;;4.68;83.38;98449.19;4959606;28;20588;-75
2021/11/16 07:01:30;;;;;;;52.20;31.40;;;6.10;77.30;;;4.64;84.25;98450.56;4982322;28;20879;-76
2021/11/16 07:04:01;;;;;;;52.90;31.53;;;6.10;77.40;;;4.67;83.62;98443.00;4980539;28;20472;-74
2021/11/16 07:06:29;;;;;;;55.03;30.97;;;6.10;77.30;;;4.74;83.74;98432.47;4973350;28;20527;-75
2021/11/16 07:08:58;;;;;;;53.97;31.43;;;6.10;77.30;;;4.67;83.54;98447.53;4957213;28;20569;-74
2021/11/16 07:11:27;;;;;;;53.00;29.67;;;6.10;77.40;;;4.68;83.93;98433.16;4977375;28;21024;-75
2021/11/16 07:14:03;;;;;;;48.53;31.40;;;6.10;77.50;;;4.68;82.40;98422.44;4952528;28;20474;-76
2021/11/16 07:16:34;;;;;;;53.93;30.30;;;6.20;77.10;;;4.79;82.36;98454.22;4960224;28;20460;-74
2021/11/16 07:19:02;;;;;;;52.90;31.63;;;6.20;76.70;;;4.74;82.47;98464.59;4972809;28;20461;-70
2021/11/16 07:21:44;;;;;;;52.10;30.30;;;6.20;76.60;;;4.60;82.94;98455.38;4965132;28;20446;-72
2021/11/16 07:24:14;;;;;;;50.50;31.07;;;6.10;76.80;;;4.74;82.93;98472.63;4968030;28;20539;-73
2021/11/16 07:26:43;;;;;;;49.17;30.73;;;6.10;77.10;;;4.87;81.77;98461.44;4967483;28;20569;-73
2021/11/16 07:29:13;;;;;;;53.83;31.90;;;6.30;76.60;;;4.95;82.15;98458.72;4971139;28;20927;-73
2021/11/16 07:31:42;;;;;;;56.60;30.90;;;6.30;76.50;;;5.02;82.05;98469.59;4971500;28;20473;-73
2021/11/16 07:34:15;;;;;;;51.57;31.60;;;6.40;76.50;;;4.90;81.63;98468.25;4976547;28;20471;-71
2021/11/16 07:36:43;;;;;;;49.43;29.07;;;6.30;76.10;;;5.04;81.65;98462.22;4951142;28;20469;-73
2021/11/16 07:39:10;;;;;;;52.27;29.00;;;6.40;76.20;;;5.25;80.64;98461.72;4969425;28;20965;-71
2021/11/16 07:41:37;;;;;;;45.33;29.97;;;6.50;75.70;;;5.12;80.77;98465.94;4972785;28;20572;-71
2021/11/16 07:44:16;;;;;;;50.27;31.47;;;6.50;75.30;;;5.06;81.83;98462.91;4967409;28;20486;-68
2021/11/16 07:46:54;;;;;;;55.20;33.00;;;6.50;75.50;;;5.22;80.48;98463.88;4965136;28;20516;-68
2021/11/16 07:49:22;;;;;;;49.57;29.77;;;6.50;75.40;;;5.27;80.84;98471.41;4968159;28;20460;-67
2021/11/16 07:51:50;;;;;;;48.17;29.57;;;6.60;75.00;;;5.30;79.89;98463.03;4965263;28;20610;-67
2021/11/16 07:54:23;;;;;;;50.20;29.80;;;6.70;74.50;;;5.34;79.60;98469.75;4965121;28;20559;-67
2021/11/16 07:56:49;;;;;;;51.67;32.58;;;6.70;74.50;;;5.54;79.42;98470.19;4945957;28;20513;-66
2021/11/16 07:59:19;;;;;;;48.13;30.80;;;6.80;74.70;;;5.59;78.12;98467.84;4964535;28;20574;-67
2021/11/16 08:01:56;;;;;;;54.40;31.40;;;6.90;73.80;;;5.45;79.50;98465.84;4963703;28;21084;-66
2021/11/16 08:04:27;;;;;;;51.80;31.07;;;6.80;73.80;;;5.55;79.50;98465.66;4969722;28;20872;-67
2021/11/16 08:07:02;;;;;;;45.57;30.23;;;6.80;73.80;;;5.33;79.57;98476.94;4966700;28;20465;-67
2021/11/16 08:09:41;;;;;;;51.30;28.80;;;6.80;73.40;;;5.04;81.44;98462.22;4972118;28;20453;-67
2021/11/16 08:12:22;;;;;;;52.70;31.50;;;6.60;74.30;;;5.36;80.19;98476.59;4951338;28;20468;-67
2021/11/16 08:15:00;;;;;;;52.40;31.07;;;6.70;74.30;;;5.52;78.95;98474.88;4967678;28;20489;-67
2021/11/16 08:17:28;;;;;;;49.93;30.00;;;6.80;73.90;;;5.59;78.63;98475.88;4966784;28;20516;-66
2021/11/16 08:19:58;;;;;;;49.47;29.80;;;7.00;73.90;;;5.37;79.16;98483.63;4971235;28;20528;-67
2021/11/16 08:22:25;;;;;;;49.10;27.97;;;6.90;73.40;;;5.79;78.23;98472.78;4963726;28;20469;-67
2021/11/16 08:24:56;;;;;;;46.03;27.87;;;7.00;73.60;;;5.73;78.59;98468.94;4966103;28;20483;-68
2021/11/16 08:27:27;;;;;;;47.20;29.03;;;7.00;73.00;;;5.79;77.63;98472.78;4964596;28;20988;-67
2021/11/16 08:30:04;;;;;;;51.67;29.90;;;7.10;72.80;;;6.14;76.37;98467.13;4971074;28;20547;-67
2021/11/16 08:32:38;;;;;;;47.03;28.67;;;7.30;72.50;;;5.73;77.74;98476.16;4965693;28;20545;-67
2021/11/16 08:35:10;;;;;;;45.50;28.43;;;7.10;71.90;;;5.95;76.97;98479.94;4949148;28;20556;-67
2021/11/16 08:37:41;;;;;;;44.30;29.73;;;7.30;72.00;;;5.80;77.15;98474.44;4966030;28;20520;-67
2021/11/16 08:40:12;;;;;;;43.17;28.40;;;7.30;71.50;;;5.70;77.36;98474.66;4948666;28;20453;-67
2021/11/16 08:42:42;;;;;;;47.33;29.53;;;7.20;71.50;;;5.72;77.47;98479.84;4967330;28;20462;-67
2021/11/16 08:45:16;;;;;;;45.10;29.67;;;7.10;71.80;;;5.48;78.85;98476.22;4957056;28;21114;-67
2021/11/16 08:47:48;;;;;;;48.07;28.90;;;7.00;72.10;;;5.78;78.64;98476.47;4953347;28;20469;-67
2021/11/16 08:50:27;;;;;;;50.43;29.20;;;7.10;72.30;;;5.90;77.35;98469.72;4964856;28;21111;-67
2021/11/16 08:52:54;;;;;;;48.07;27.73;;;7.20;71.70;;;5.71;77.49;98470.97;4959240;28;20818;-67
2021/11/16 08:55:26;;;;;;;47.83;28.50;;;7.20;71.60;;;5.93;77.06;98473.91;4960516;28;20501;-67
2021/11/16 08:57:54;;;;;;;48.37;28.47;;;7.30;71.60;;;6.22;75.87;98465.25;4962911;28;20825;-67
2021/11/16 09:00:27;;;;;;;43.37;27.70;;;7.40;71.30;;;6.09;76.05;98473.03;4943730;28;20565;-67
2021/11/16 09:03:04;;;;;;;40.50;27.53;;;7.50;71.00;;;6.12;76.08;98475.34;4960096;28;20445;-67
2021/11/16 09:05:35;;;;;;;47.73;28.40;;;7.50;70.60;;;6.32;75.45;98481.13;4963677;28;20499;-68
2021/11/16 09:08:06;;;;;;;46.07;27.90;;;7.60;70.50;;;6.27;75.72;98479.97;4961216;28;20462;-67
2021/11/16 09:10:37;;;;;;;45.27;28.50;;;7.60;70.20;;;6.19;75.44;98476.34;4948486;28;20516;-67
2021/11/16 09:13:10;;;;;;;44.87;27.87;;;7.60;70.20;;;6.08;76.00;98484.75;4961131;28;20478;-67
2021/11/16 09:15:41;;;;;;;41.83;25.97;;;7.50;70.10;;;6.00;76.25;98484.78;4965251;28;20548;-67
2021/11/16 09:18:15;;;;;;;45.40;28.80;;;7.40;70.40;;;6.44;74.92;98481.53;4946473;28;20470;-67
2021/11/16 09:20:44;;;;;;;45.83;28.33;;;7.60;70.30;;;6.40;74.95;98472.19;4969258;28;20497;-68
2021/11/16 09:23:21;;;;;;;41.63;27.20;;;7.70;70.20;;;6.42;75.09;98488.94;4963650;28;20508;-68
2021/11/16 09:25:52;;;;;;;46.73;30.23;;;7.70;69.80;;;6.59;74.97;98476.25;4959442;28;21646;-67
2021/11/16 09:28:34;;;;;;;47.87;28.27;;;7.70;70.00;;;6.51;73.91;98485.19;4960305;28;20553;-68
2021/11/16 09:31:20;;;;;;;44.43;27.20;;;7.80;69.10;;;6.47;74.86;98481.22;4948217;28;20516;-68
2021/11/16 09:33:48;;;;;;;43.93;27.90;;;7.60;69.50;;;6.66;73.95;98484.44;4967438;28;20484;-68
2021/11/16 09:36:23;;;;;;;45.67;28.97;;;7.80;69.20;;;6.37;74.35;98485.97;4949180;28;20553;-68
2021/11/16 09:38:52;;;;;;;37.87;26.27;;;7.70;68.90;;;6.30;75.32;98487.69;4962030;28;20481;-67
2021/11/16 09:41:33;;;;;;;42.87;25.83;;;7.70;69.30;;;6.64;73.96;98481.09;4947106;28;20486;-68
2021/11/16 09:44:07;;;;;;;41.57;26.33;;;7.70;69.30;;;6.74;73.16;98468.25;4957935;28;20450;-67
2021/11/16 09:46:49;;;;;;;40.93;27.00;;;8.00;68.70;;;6.82;73.27;98472.72;4957314;28;20485;-67
2021/11/16 09:49:20;;;;;;;38.30;25.90;;;8.00;68.30;;;6.76;73.50;98479.66;4965463;28;20537;-67
2021/11/16 09:51:59;;;;;;;43.17;26.27;;;8.00;68.30;;;6.60;73.59;98477.91;4964314;28;20584;-67
2021/11/16 09:54:26;;;;;;;40.73;25.97;;;8.00;68.20;;;6.62;74.25;98469.69;4953441;28;20468;-68
2021/11/16 09:57:07;;;;;;;39.90;27.73;;;7.90;68.50;;;6.52;74.29;98462.72;4965185;28;20491;-68
2021/11/16 09:59:34;;;;;;;38.28;26.45;;;7.90;68.60;;;6.98;72.67;98466.38;4966741;28;20468;-68
2021/11/16 10:02:03;;;;;;;42.70;28.80;;;8.10;68.10;;;6.93;72.91;98461.56;4965278;28;21448;-68
2021/11/16 10:04:35;;;;;;;39.10;24.70;;;8.20;67.70;;;7.20;71.33;98463.81;4960781;28;20469;-79
2021/11/16 10:07:03;;;;;;;38.70;25.13;;;8.40;67.10;;;7.25;71.40;98456.06;4969130;28;20544;-71
2021/11/16 10:09:30;;;;;;;42.43;26.27;;;8.50;66.60;;;7.12;71.93;98463.91;4966351;28;20534;-70
2021/11/16 10:11:57;;;;;;;37.67;26.03;;;8.50;66.90;;;6.74;72.88;98460.19;4948419;28;20455;-70
2021/11/16 10:14:24;;;;;;;40.87;25.00;;;8.30;66.60;;;7.07;72.88;98459.09;4962963;28;20568;-70
2021/11/16 10:16:52;;;;;;;36.23;25.80;;;8.30;67.20;;;7.36;71.09;98466.38;4946207;28;20493;-67
2021/11/16 10:19:21;;;;;;;37.67;27.07;;;8.50;66.70;;;7.33;71.27;98453.28;4966844;28;20475;-69
2021/11/16 10:21:48;;;;;;;39.43;25.80;;;8.60;66.50;;;7.41;70.76;98459.59;4950539;28;20454;-70
2021/11/16 10:24:29;;;;;;;35.60;24.47;;;8.60;66.10;;;7.35;71.01;98453.97;4962341;28;20463;-70
2021/11/16 10:27:03;;;;;;;42.70;25.70;;;8.60;66.20;;;7.52;70.58;98445.72;4947100;28;20477;-70
2021/11/16 10:29:31;;;;;;;34.03;23.57;;;8.60;66.00;;;7.48;69.96;98453.31;4962399;28;20571;-70
2021/11/16 10:31:58;;;;;;;34.23;23.00;;;8.60;65.60;;;7.24;70.87;98454.41;4960947;28;20462;-70
2021/11/16 10:34:41;;;;;;;41.47;30.97;;;8.60;65.70;;;7.38;71.03;98450.03;4958204;28;20467;-71
2021/11/16 10:37:08;;;;;;;36.17;26.63;;;8.50;66.10;;;7.26;72.03;98459.56;4950370;28;20649;-70
2021/11/16 10:39:35;;;;;;;40.73;27.63;;;8.50;66.50;;;6.90;72.72;98450.31;4969090;28;20492;-68